<?xml version="1.0" encoding="UTF-8" standalone="no" ?>
<gpx xmlns="http://www.topografix.com/GPX/1/1" xmlns:xsi="http://www.w3.org/2001/XMLSchema-instance" xsi:schemaLocation="http://www.topografix.com/GPX/1/1 http://www.topografix.com/GPX/1/1/gpx.xsd" version="1.1" creator="VisuGPX - https://www.visugpx.com">
  <metadata>
    <name>83 - M - ROQUEBRUNE</name>
    <desc><![CDATA[ROQUEBRUNE - Les 25 Ponts]]></desc>
  </metadata>
  <wpt lat="43.44003" lon="6.63391">
    <ele>99</ele>
    <name><![CDATA[Point de passage 1]]></name>
    <type><![CDATA[GENERIC]]></type>
  </wpt>
  <wpt lat="43.43998" lon="6.63379">
    <ele>92</ele>
    <name><![CDATA[Point de passage 2]]></name>
    <type><![CDATA[GENERIC]]></type>
  </wpt>
  <trk>
    <name><![CDATA[Mercredi les 25 ponts 12 nov]]></name>
    <trkseg>
      <trkpt lat="43.44003" lon="6.63391">
        <ele>99</ele>
        <time>2025-11-12T13:17:55.000Z</time>
      </trkpt>
      <trkpt lat="43.44003" lon="6.63395">
        <ele>97</ele>
        <time>2025-11-12T13:17:58.000Z</time>
      </trkpt>
      <trkpt lat="43.44" lon="6.63404">
        <ele>97</ele>
        <time>2025-11-12T13:18:25.000Z</time>
      </trkpt>
      <trkpt lat="43.43992" lon="6.63404">
        <ele>98</ele>
        <time>2025-11-12T13:19:28.000Z</time>
      </trkpt>
      <trkpt lat="43.43982" lon="6.63401">
        <ele>98</ele>
        <time>2025-11-12T13:19:40.000Z</time>
      </trkpt>
      <trkpt lat="43.43975" lon="6.63395">
        <ele>98</ele>
        <time>2025-11-12T13:20:16.000Z</time>
      </trkpt>
      <trkpt lat="43.43973" lon="6.63382">
        <ele>99</ele>
        <time>2025-11-12T13:22:35.000Z</time>
      </trkpt>
      <trkpt lat="43.43967" lon="6.63374">
        <ele>99</ele>
        <time>2025-11-12T13:22:50.000Z</time>
      </trkpt>
      <trkpt lat="43.43959" lon="6.63369">
        <ele>100</ele>
        <time>2025-11-12T13:23:23.000Z</time>
      </trkpt>
      <trkpt lat="43.43952" lon="6.63361">
        <ele>100</ele>
        <time>2025-11-12T13:23:38.000Z</time>
      </trkpt>
      <trkpt lat="43.43945" lon="6.63355">
        <ele>101</ele>
        <time>2025-11-12T13:23:53.000Z</time>
      </trkpt>
      <trkpt lat="43.43938" lon="6.63346">
        <ele>101</ele>
        <time>2025-11-12T13:24:08.000Z</time>
      </trkpt>
      <trkpt lat="43.43931" lon="6.63335">
        <ele>102</ele>
        <time>2025-11-12T13:24:20.000Z</time>
      </trkpt>
      <trkpt lat="43.43923" lon="6.63326">
        <ele>103</ele>
        <time>2025-11-12T13:24:35.000Z</time>
      </trkpt>
      <trkpt lat="43.43915" lon="6.63322">
        <ele>104</ele>
        <time>2025-11-12T13:24:53.000Z</time>
      </trkpt>
      <trkpt lat="43.43906" lon="6.63327">
        <ele>105</ele>
        <time>2025-11-12T13:25:08.000Z</time>
      </trkpt>
      <trkpt lat="43.43897" lon="6.63334">
        <ele>107</ele>
        <time>2025-11-12T13:25:23.000Z</time>
      </trkpt>
      <trkpt lat="43.43889" lon="6.6334">
        <ele>108</ele>
        <time>2025-11-12T13:25:35.000Z</time>
      </trkpt>
      <trkpt lat="43.4388" lon="6.63345">
        <ele>110</ele>
        <time>2025-11-12T13:25:50.000Z</time>
      </trkpt>
      <trkpt lat="43.43872" lon="6.6335">
        <ele>111</ele>
        <time>2025-11-12T13:26:05.000Z</time>
      </trkpt>
      <trkpt lat="43.43863" lon="6.63351">
        <ele>112</ele>
        <time>2025-11-12T13:26:17.000Z</time>
      </trkpt>
      <trkpt lat="43.43855" lon="6.63352">
        <ele>113</ele>
        <time>2025-11-12T13:26:29.000Z</time>
      </trkpt>
      <trkpt lat="43.43847" lon="6.63357">
        <ele>114</ele>
        <time>2025-11-12T13:26:41.000Z</time>
      </trkpt>
      <trkpt lat="43.4384" lon="6.63365">
        <ele>115</ele>
        <time>2025-11-12T13:26:56.000Z</time>
      </trkpt>
      <trkpt lat="43.43831" lon="6.6337">
        <ele>116</ele>
        <time>2025-11-12T13:27:05.000Z</time>
      </trkpt>
      <trkpt lat="43.43821" lon="6.63372">
        <ele>116</ele>
        <time>2025-11-12T13:27:17.000Z</time>
      </trkpt>
      <trkpt lat="43.43813" lon="6.63369">
        <ele>117</ele>
        <time>2025-11-12T13:27:32.000Z</time>
      </trkpt>
      <trkpt lat="43.43805" lon="6.6337">
        <ele>117</ele>
        <time>2025-11-12T13:27:47.000Z</time>
      </trkpt>
      <trkpt lat="43.438" lon="6.63379">
        <ele>117</ele>
        <time>2025-11-12T13:27:59.000Z</time>
      </trkpt>
      <trkpt lat="43.43803" lon="6.63392">
        <ele>117</ele>
        <time>2025-11-12T13:28:17.000Z</time>
      </trkpt>
      <trkpt lat="43.43805" lon="6.63406">
        <ele>117</ele>
        <time>2025-11-12T13:28:32.000Z</time>
      </trkpt>
      <trkpt lat="43.43804" lon="6.6342">
        <ele>117</ele>
        <time>2025-11-12T13:28:44.000Z</time>
      </trkpt>
      <trkpt lat="43.43803" lon="6.63433">
        <ele>117</ele>
        <time>2025-11-12T13:28:56.000Z</time>
      </trkpt>
      <trkpt lat="43.43803" lon="6.63446">
        <ele>117</ele>
        <time>2025-11-12T13:29:11.000Z</time>
      </trkpt>
      <trkpt lat="43.43803" lon="6.63458">
        <ele>118</ele>
        <time>2025-11-12T13:29:26.000Z</time>
      </trkpt>
      <trkpt lat="43.43801" lon="6.63472">
        <ele>118</ele>
        <time>2025-11-12T13:29:41.000Z</time>
      </trkpt>
      <trkpt lat="43.43798" lon="6.63483">
        <ele>118</ele>
        <time>2025-11-12T13:29:50.000Z</time>
      </trkpt>
      <trkpt lat="43.43793" lon="6.63493">
        <ele>118</ele>
        <time>2025-11-12T13:29:59.000Z</time>
      </trkpt>
      <trkpt lat="43.43787" lon="6.63503">
        <ele>119</ele>
        <time>2025-11-12T13:30:08.000Z</time>
      </trkpt>
      <trkpt lat="43.43779" lon="6.63512">
        <ele>119</ele>
        <time>2025-11-12T13:30:17.000Z</time>
      </trkpt>
      <trkpt lat="43.43772" lon="6.63523">
        <ele>120</ele>
        <time>2025-11-12T13:30:29.000Z</time>
      </trkpt>
      <trkpt lat="43.43763" lon="6.63529">
        <ele>119</ele>
        <time>2025-11-12T13:30:41.000Z</time>
      </trkpt>
      <trkpt lat="43.43753" lon="6.63532">
        <ele>119</ele>
        <time>2025-11-12T13:30:53.000Z</time>
      </trkpt>
      <trkpt lat="43.43744" lon="6.63535">
        <ele>120</ele>
        <time>2025-11-12T13:31:02.000Z</time>
      </trkpt>
      <trkpt lat="43.43738" lon="6.63546">
        <ele>122</ele>
        <time>2025-11-12T13:31:14.000Z</time>
      </trkpt>
      <trkpt lat="43.43735" lon="6.63558">
        <ele>124</ele>
        <time>2025-11-12T13:31:23.000Z</time>
      </trkpt>
      <trkpt lat="43.43733" lon="6.6357">
        <ele>125</ele>
        <time>2025-11-12T13:31:35.000Z</time>
      </trkpt>
      <trkpt lat="43.4373" lon="6.63583">
        <ele>125</ele>
        <time>2025-11-12T13:32:41.000Z</time>
      </trkpt>
      <trkpt lat="43.43725" lon="6.63595">
        <ele>125</ele>
        <time>2025-11-12T13:33:08.000Z</time>
      </trkpt>
      <trkpt lat="43.43718" lon="6.63603">
        <ele>125</ele>
        <time>2025-11-12T13:33:20.000Z</time>
      </trkpt>
      <trkpt lat="43.43709" lon="6.63612">
        <ele>125</ele>
        <time>2025-11-12T13:33:32.000Z</time>
      </trkpt>
      <trkpt lat="43.43703" lon="6.63621">
        <ele>126</ele>
        <time>2025-11-12T13:33:44.000Z</time>
      </trkpt>
      <trkpt lat="43.43696" lon="6.6363">
        <ele>127</ele>
        <time>2025-11-12T13:33:53.000Z</time>
      </trkpt>
      <trkpt lat="43.43688" lon="6.63637">
        <ele>128</ele>
        <time>2025-11-12T13:34:02.000Z</time>
      </trkpt>
      <trkpt lat="43.4368" lon="6.63639">
        <ele>129</ele>
        <time>2025-11-12T13:34:11.000Z</time>
      </trkpt>
      <trkpt lat="43.43671" lon="6.63642">
        <ele>130</ele>
        <time>2025-11-12T13:34:20.000Z</time>
      </trkpt>
      <trkpt lat="43.43661" lon="6.63642">
        <ele>130</ele>
        <time>2025-11-12T13:34:29.000Z</time>
      </trkpt>
      <trkpt lat="43.43651" lon="6.6364">
        <ele>130</ele>
        <time>2025-11-12T13:34:39.000Z</time>
      </trkpt>
      <trkpt lat="43.43641" lon="6.63634">
        <ele>130</ele>
        <time>2025-11-12T13:34:57.000Z</time>
      </trkpt>
      <trkpt lat="43.43632" lon="6.63627">
        <ele>130</ele>
        <time>2025-11-12T13:35:09.000Z</time>
      </trkpt>
      <trkpt lat="43.43623" lon="6.63621">
        <ele>130</ele>
        <time>2025-11-12T13:35:18.000Z</time>
      </trkpt>
      <trkpt lat="43.43613" lon="6.63624">
        <ele>130</ele>
        <time>2025-11-12T13:35:27.000Z</time>
      </trkpt>
      <trkpt lat="43.43604" lon="6.63633">
        <ele>131</ele>
        <time>2025-11-12T13:35:36.000Z</time>
      </trkpt>
      <trkpt lat="43.43596" lon="6.63641">
        <ele>131</ele>
        <time>2025-11-12T13:35:45.000Z</time>
      </trkpt>
      <trkpt lat="43.43586" lon="6.63637">
        <ele>131</ele>
        <time>2025-11-12T13:35:54.000Z</time>
      </trkpt>
      <trkpt lat="43.4358" lon="6.63628">
        <ele>131</ele>
        <time>2025-11-12T13:36:00.000Z</time>
      </trkpt>
      <trkpt lat="43.43571" lon="6.63622">
        <ele>131</ele>
        <time>2025-11-12T13:36:09.000Z</time>
      </trkpt>
      <trkpt lat="43.43561" lon="6.63618">
        <ele>132</ele>
        <time>2025-11-12T13:36:21.000Z</time>
      </trkpt>
      <trkpt lat="43.43553" lon="6.63608">
        <ele>132</ele>
        <time>2025-11-12T13:36:30.000Z</time>
      </trkpt>
      <trkpt lat="43.43546" lon="6.636">
        <ele>132</ele>
        <time>2025-11-12T13:36:36.000Z</time>
      </trkpt>
      <trkpt lat="43.4354" lon="6.6359">
        <ele>132</ele>
        <time>2025-11-12T13:36:42.000Z</time>
      </trkpt>
      <trkpt lat="43.43534" lon="6.63579">
        <ele>132</ele>
        <time>2025-11-12T13:36:51.000Z</time>
      </trkpt>
      <trkpt lat="43.43527" lon="6.63566">
        <ele>132</ele>
        <time>2025-11-12T13:37:00.000Z</time>
      </trkpt>
      <trkpt lat="43.43523" lon="6.63554">
        <ele>132</ele>
        <time>2025-11-12T13:37:12.000Z</time>
      </trkpt>
      <trkpt lat="43.43521" lon="6.63542">
        <ele>133</ele>
        <time>2025-11-12T13:38:00.000Z</time>
      </trkpt>
      <trkpt lat="43.43516" lon="6.63532">
        <ele>133</ele>
        <time>2025-11-12T13:38:09.000Z</time>
      </trkpt>
      <trkpt lat="43.43508" lon="6.63526">
        <ele>134</ele>
        <time>2025-11-12T13:38:21.000Z</time>
      </trkpt>
      <trkpt lat="43.43499" lon="6.63519">
        <ele>134</ele>
        <time>2025-11-12T13:38:30.000Z</time>
      </trkpt>
      <trkpt lat="43.43493" lon="6.6351">
        <ele>134</ele>
        <time>2025-11-12T13:38:39.000Z</time>
      </trkpt>
      <trkpt lat="43.43487" lon="6.63499">
        <ele>133</ele>
        <time>2025-11-12T13:38:48.000Z</time>
      </trkpt>
      <trkpt lat="43.4348" lon="6.63491">
        <ele>133</ele>
        <time>2025-11-12T13:38:57.000Z</time>
      </trkpt>
      <trkpt lat="43.43473" lon="6.63484">
        <ele>133</ele>
        <time>2025-11-12T13:39:06.000Z</time>
      </trkpt>
      <trkpt lat="43.43466" lon="6.63473">
        <ele>133</ele>
        <time>2025-11-12T13:39:18.000Z</time>
      </trkpt>
      <trkpt lat="43.43461" lon="6.63461">
        <ele>133</ele>
        <time>2025-11-12T13:39:36.000Z</time>
      </trkpt>
      <trkpt lat="43.43455" lon="6.63453">
        <ele>133</ele>
        <time>2025-11-12T13:39:57.000Z</time>
      </trkpt>
      <trkpt lat="43.43449" lon="6.63444">
        <ele>133</ele>
        <time>2025-11-12T13:40:09.000Z</time>
      </trkpt>
      <trkpt lat="43.43444" lon="6.63434">
        <ele>133</ele>
        <time>2025-11-12T13:40:21.000Z</time>
      </trkpt>
      <trkpt lat="43.4344" lon="6.63422">
        <ele>133</ele>
        <time>2025-11-12T13:41:42.000Z</time>
      </trkpt>
      <trkpt lat="43.43433" lon="6.63409">
        <ele>134</ele>
        <time>2025-11-12T13:41:51.000Z</time>
      </trkpt>
      <trkpt lat="43.43427" lon="6.63396">
        <ele>134</ele>
        <time>2025-11-12T13:42:00.000Z</time>
      </trkpt>
      <trkpt lat="43.43421" lon="6.63387">
        <ele>135</ele>
        <time>2025-11-12T13:42:12.000Z</time>
      </trkpt>
      <trkpt lat="43.43416" lon="6.63375">
        <ele>135</ele>
        <time>2025-11-12T13:42:33.000Z</time>
      </trkpt>
      <trkpt lat="43.43414" lon="6.63364">
        <ele>135</ele>
        <time>2025-11-12T13:42:42.000Z</time>
      </trkpt>
      <trkpt lat="43.43413" lon="6.63351">
        <ele>135</ele>
        <time>2025-11-12T13:42:57.000Z</time>
      </trkpt>
      <trkpt lat="43.43414" lon="6.63339">
        <ele>135</ele>
        <time>2025-11-12T13:43:06.000Z</time>
      </trkpt>
      <trkpt lat="43.43414" lon="6.63326">
        <ele>136</ele>
        <time>2025-11-12T13:43:15.000Z</time>
      </trkpt>
      <trkpt lat="43.43416" lon="6.63313">
        <ele>137</ele>
        <time>2025-11-12T13:43:27.000Z</time>
      </trkpt>
      <trkpt lat="43.43419" lon="6.63299">
        <ele>138</ele>
        <time>2025-11-12T13:43:36.000Z</time>
      </trkpt>
      <trkpt lat="43.43422" lon="6.63287">
        <ele>139</ele>
        <time>2025-11-12T13:43:48.000Z</time>
      </trkpt>
      <trkpt lat="43.43427" lon="6.63274">
        <ele>141</ele>
        <time>2025-11-12T13:44:00.000Z</time>
      </trkpt>
      <trkpt lat="43.43432" lon="6.63264">
        <ele>143</ele>
        <time>2025-11-12T13:44:09.000Z</time>
      </trkpt>
      <trkpt lat="43.43437" lon="6.63254">
        <ele>144</ele>
        <time>2025-11-12T13:44:24.000Z</time>
      </trkpt>
      <trkpt lat="43.43442" lon="6.63244">
        <ele>146</ele>
        <time>2025-11-12T13:44:39.000Z</time>
      </trkpt>
      <trkpt lat="43.43447" lon="6.63233">
        <ele>147</ele>
        <time>2025-11-12T13:44:51.000Z</time>
      </trkpt>
      <trkpt lat="43.43451" lon="6.63223">
        <ele>148</ele>
        <time>2025-11-12T13:45:03.000Z</time>
      </trkpt>
      <trkpt lat="43.43458" lon="6.63213">
        <ele>150</ele>
        <time>2025-11-12T13:45:12.000Z</time>
      </trkpt>
      <trkpt lat="43.43463" lon="6.63201">
        <ele>151</ele>
        <time>2025-11-12T13:45:24.000Z</time>
      </trkpt>
      <trkpt lat="43.43471" lon="6.63197">
        <ele>152</ele>
        <time>2025-11-12T13:45:36.000Z</time>
      </trkpt>
      <trkpt lat="43.43482" lon="6.63196">
        <ele>153</ele>
        <time>2025-11-12T13:45:48.000Z</time>
      </trkpt>
      <trkpt lat="43.43491" lon="6.63193">
        <ele>155</ele>
        <time>2025-11-12T13:46:00.000Z</time>
      </trkpt>
      <trkpt lat="43.43498" lon="6.63183">
        <ele>157</ele>
        <time>2025-11-12T13:46:12.000Z</time>
      </trkpt>
      <trkpt lat="43.43505" lon="6.63175">
        <ele>159</ele>
        <time>2025-11-12T13:46:21.000Z</time>
      </trkpt>
      <trkpt lat="43.43512" lon="6.63168">
        <ele>161</ele>
        <time>2025-11-12T13:46:33.000Z</time>
      </trkpt>
      <trkpt lat="43.43522" lon="6.63165">
        <ele>163</ele>
        <time>2025-11-12T13:46:45.000Z</time>
      </trkpt>
      <trkpt lat="43.43531" lon="6.63159">
        <ele>166</ele>
        <time>2025-11-12T13:46:57.000Z</time>
      </trkpt>
      <trkpt lat="43.43539" lon="6.63153">
        <ele>168</ele>
        <time>2025-11-12T13:47:06.000Z</time>
      </trkpt>
      <trkpt lat="43.43548" lon="6.63146">
        <ele>170</ele>
        <time>2025-11-12T13:47:18.000Z</time>
      </trkpt>
      <trkpt lat="43.43558" lon="6.6314">
        <ele>172</ele>
        <time>2025-11-12T13:47:30.000Z</time>
      </trkpt>
      <trkpt lat="43.43567" lon="6.6314">
        <ele>173</ele>
        <time>2025-11-12T13:47:51.000Z</time>
      </trkpt>
      <trkpt lat="43.43573" lon="6.63149">
        <ele>174</ele>
        <time>2025-11-12T13:48:06.000Z</time>
      </trkpt>
      <trkpt lat="43.43578" lon="6.63162">
        <ele>173</ele>
        <time>2025-11-12T13:48:21.000Z</time>
      </trkpt>
      <trkpt lat="43.43582" lon="6.63173">
        <ele>173</ele>
        <time>2025-11-12T13:48:30.000Z</time>
      </trkpt>
      <trkpt lat="43.43587" lon="6.63185">
        <ele>172</ele>
        <time>2025-11-12T13:48:42.000Z</time>
      </trkpt>
      <trkpt lat="43.4359" lon="6.63197">
        <ele>171</ele>
        <time>2025-11-12T13:48:51.000Z</time>
      </trkpt>
      <trkpt lat="43.43592" lon="6.63209">
        <ele>171</ele>
        <time>2025-11-12T13:49:00.000Z</time>
      </trkpt>
      <trkpt lat="43.43597" lon="6.63222">
        <ele>172</ele>
        <time>2025-11-12T13:49:09.000Z</time>
      </trkpt>
      <trkpt lat="43.43603" lon="6.63233">
        <ele>172</ele>
        <time>2025-11-12T13:49:21.000Z</time>
      </trkpt>
      <trkpt lat="43.4361" lon="6.63243">
        <ele>172</ele>
        <time>2025-11-12T13:49:33.000Z</time>
      </trkpt>
      <trkpt lat="43.43619" lon="6.63248">
        <ele>172</ele>
        <time>2025-11-12T13:49:45.000Z</time>
      </trkpt>
      <trkpt lat="43.43628" lon="6.63251">
        <ele>174</ele>
        <time>2025-11-12T13:50:00.000Z</time>
      </trkpt>
      <trkpt lat="43.43635" lon="6.63243">
        <ele>176</ele>
        <time>2025-11-12T13:50:15.000Z</time>
      </trkpt>
      <trkpt lat="43.43642" lon="6.63232">
        <ele>179</ele>
        <time>2025-11-12T13:50:27.000Z</time>
      </trkpt>
      <trkpt lat="43.43647" lon="6.63221">
        <ele>182</ele>
        <time>2025-11-12T13:50:39.000Z</time>
      </trkpt>
      <trkpt lat="43.43653" lon="6.63212">
        <ele>183</ele>
        <time>2025-11-12T13:51:06.000Z</time>
      </trkpt>
      <trkpt lat="43.4366" lon="6.63211">
        <ele>184</ele>
        <time>2025-11-12T13:54:03.000Z</time>
      </trkpt>
      <trkpt lat="43.43656" lon="6.63206">
        <ele>182</ele>
        <time>2025-11-12T13:56:36.000Z</time>
      </trkpt>
      <trkpt lat="43.43652" lon="6.63218">
        <ele>181</ele>
        <time>2025-11-12T13:57:54.000Z</time>
      </trkpt>
      <trkpt lat="43.43647" lon="6.63229">
        <ele>179</ele>
        <time>2025-11-12T13:58:03.000Z</time>
      </trkpt>
      <trkpt lat="43.43641" lon="6.63239">
        <ele>178</ele>
        <time>2025-11-12T13:58:18.000Z</time>
      </trkpt>
      <trkpt lat="43.43636" lon="6.63249">
        <ele>177</ele>
        <time>2025-11-12T13:58:30.000Z</time>
      </trkpt>
      <trkpt lat="43.43626" lon="6.6325">
        <ele>176</ele>
        <time>2025-11-12T13:58:39.000Z</time>
      </trkpt>
      <trkpt lat="43.43616" lon="6.63249">
        <ele>175</ele>
        <time>2025-11-12T13:58:51.000Z</time>
      </trkpt>
      <trkpt lat="43.43607" lon="6.63243">
        <ele>175</ele>
        <time>2025-11-12T13:59:00.000Z</time>
      </trkpt>
      <trkpt lat="43.43601" lon="6.63234">
        <ele>175</ele>
        <time>2025-11-12T13:59:09.000Z</time>
      </trkpt>
      <trkpt lat="43.43596" lon="6.63225">
        <ele>174</ele>
        <time>2025-11-12T13:59:15.000Z</time>
      </trkpt>
      <trkpt lat="43.43592" lon="6.63211">
        <ele>174</ele>
        <time>2025-11-12T13:59:24.000Z</time>
      </trkpt>
      <trkpt lat="43.43589" lon="6.63198">
        <ele>173</ele>
        <time>2025-11-12T13:59:33.000Z</time>
      </trkpt>
      <trkpt lat="43.43584" lon="6.63183">
        <ele>173</ele>
        <time>2025-11-12T13:59:45.000Z</time>
      </trkpt>
      <trkpt lat="43.43578" lon="6.6317">
        <ele>172</ele>
        <time>2025-11-12T13:59:54.000Z</time>
      </trkpt>
      <trkpt lat="43.43575" lon="6.63158">
        <ele>171</ele>
        <time>2025-11-12T14:00:03.000Z</time>
      </trkpt>
      <trkpt lat="43.43571" lon="6.63146">
        <ele>170</ele>
        <time>2025-11-12T14:00:12.000Z</time>
      </trkpt>
      <trkpt lat="43.43562" lon="6.63141">
        <ele>169</ele>
        <time>2025-11-12T14:00:27.000Z</time>
      </trkpt>
      <trkpt lat="43.43554" lon="6.63144">
        <ele>168</ele>
        <time>2025-11-12T14:00:36.000Z</time>
      </trkpt>
      <trkpt lat="43.43545" lon="6.63148">
        <ele>167</ele>
        <time>2025-11-12T14:00:45.000Z</time>
      </trkpt>
      <trkpt lat="43.43536" lon="6.63156">
        <ele>165</ele>
        <time>2025-11-12T14:00:57.000Z</time>
      </trkpt>
      <trkpt lat="43.43528" lon="6.63162">
        <ele>164</ele>
        <time>2025-11-12T14:01:06.000Z</time>
      </trkpt>
      <trkpt lat="43.43519" lon="6.63165">
        <ele>163</ele>
        <time>2025-11-12T14:01:15.000Z</time>
      </trkpt>
      <trkpt lat="43.43511" lon="6.63169">
        <ele>161</ele>
        <time>2025-11-12T14:01:24.000Z</time>
      </trkpt>
      <trkpt lat="43.43504" lon="6.63177">
        <ele>160</ele>
        <time>2025-11-12T14:01:36.000Z</time>
      </trkpt>
      <trkpt lat="43.43496" lon="6.63187">
        <ele>159</ele>
        <time>2025-11-12T14:01:48.000Z</time>
      </trkpt>
      <trkpt lat="43.43487" lon="6.6319">
        <ele>157</ele>
        <time>2025-11-12T14:02:00.000Z</time>
      </trkpt>
      <trkpt lat="43.43478" lon="6.63192">
        <ele>156</ele>
        <time>2025-11-12T14:02:09.000Z</time>
      </trkpt>
      <trkpt lat="43.43468" lon="6.63196">
        <ele>154</ele>
        <time>2025-11-12T14:02:21.000Z</time>
      </trkpt>
      <trkpt lat="43.43462" lon="6.63208">
        <ele>153</ele>
        <time>2025-11-12T14:02:33.000Z</time>
      </trkpt>
      <trkpt lat="43.43455" lon="6.63219">
        <ele>151</ele>
        <time>2025-11-12T14:02:45.000Z</time>
      </trkpt>
      <trkpt lat="43.4345" lon="6.63231">
        <ele>150</ele>
        <time>2025-11-12T14:02:57.000Z</time>
      </trkpt>
      <trkpt lat="43.43445" lon="6.63242">
        <ele>148</ele>
        <time>2025-11-12T14:03:09.000Z</time>
      </trkpt>
      <trkpt lat="43.43437" lon="6.6325">
        <ele>147</ele>
        <time>2025-11-12T14:03:27.000Z</time>
      </trkpt>
      <trkpt lat="43.43432" lon="6.63262">
        <ele>145</ele>
        <time>2025-11-12T14:03:39.000Z</time>
      </trkpt>
      <trkpt lat="43.43427" lon="6.63274">
        <ele>144</ele>
        <time>2025-11-12T14:03:51.000Z</time>
      </trkpt>
      <trkpt lat="43.43423" lon="6.63286">
        <ele>143</ele>
        <time>2025-11-12T14:04:00.000Z</time>
      </trkpt>
      <trkpt lat="43.43419" lon="6.63298">
        <ele>142</ele>
        <time>2025-11-12T14:04:09.000Z</time>
      </trkpt>
      <trkpt lat="43.43416" lon="6.63312">
        <ele>140</ele>
        <time>2025-11-12T14:04:21.000Z</time>
      </trkpt>
      <trkpt lat="43.43414" lon="6.63326">
        <ele>139</ele>
        <time>2025-11-12T14:04:33.000Z</time>
      </trkpt>
      <trkpt lat="43.43413" lon="6.63339">
        <ele>138</ele>
        <time>2025-11-12T14:04:42.000Z</time>
      </trkpt>
      <trkpt lat="43.43413" lon="6.63353">
        <ele>137</ele>
        <time>2025-11-12T14:04:57.000Z</time>
      </trkpt>
      <trkpt lat="43.43414" lon="6.63367">
        <ele>136</ele>
        <time>2025-11-12T14:05:09.000Z</time>
      </trkpt>
      <trkpt lat="43.43417" lon="6.63379">
        <ele>135</ele>
        <time>2025-11-12T14:05:21.000Z</time>
      </trkpt>
      <trkpt lat="43.43414" lon="6.6339">
        <ele>135</ele>
        <time>2025-11-12T14:05:36.000Z</time>
      </trkpt>
      <trkpt lat="43.43405" lon="6.63396">
        <ele>134</ele>
        <time>2025-11-12T14:06:39.000Z</time>
      </trkpt>
      <trkpt lat="43.43396" lon="6.63396">
        <ele>134</ele>
        <time>2025-11-12T14:06:51.000Z</time>
      </trkpt>
      <trkpt lat="43.43388" lon="6.63393">
        <ele>133</ele>
        <time>2025-11-12T14:07:03.000Z</time>
      </trkpt>
      <trkpt lat="43.43384" lon="6.63383">
        <ele>132</ele>
        <time>2025-11-12T14:08:09.000Z</time>
      </trkpt>
      <trkpt lat="43.43381" lon="6.6337">
        <ele>131</ele>
        <time>2025-11-12T14:08:21.000Z</time>
      </trkpt>
      <trkpt lat="43.43381" lon="6.63356">
        <ele>130</ele>
        <time>2025-11-12T14:08:33.000Z</time>
      </trkpt>
      <trkpt lat="43.43381" lon="6.63343">
        <ele>129</ele>
        <time>2025-11-12T14:08:42.000Z</time>
      </trkpt>
      <trkpt lat="43.4338" lon="6.63327">
        <ele>129</ele>
        <time>2025-11-12T14:08:54.000Z</time>
      </trkpt>
      <trkpt lat="43.4338" lon="6.63313">
        <ele>128</ele>
        <time>2025-11-12T14:09:06.000Z</time>
      </trkpt>
      <trkpt lat="43.43379" lon="6.63301">
        <ele>127</ele>
        <time>2025-11-12T14:09:15.000Z</time>
      </trkpt>
      <trkpt lat="43.43376" lon="6.63287">
        <ele>126</ele>
        <time>2025-11-12T14:09:27.000Z</time>
      </trkpt>
      <trkpt lat="43.43373" lon="6.63274">
        <ele>125</ele>
        <time>2025-11-12T14:09:36.000Z</time>
      </trkpt>
      <trkpt lat="43.43374" lon="6.63261">
        <ele>124</ele>
        <time>2025-11-12T14:09:48.000Z</time>
      </trkpt>
      <trkpt lat="43.43376" lon="6.63249">
        <ele>123</ele>
        <time>2025-11-12T14:09:57.000Z</time>
      </trkpt>
      <trkpt lat="43.43376" lon="6.63235">
        <ele>122</ele>
        <time>2025-11-12T14:10:09.000Z</time>
      </trkpt>
      <trkpt lat="43.43378" lon="6.63223">
        <ele>122</ele>
        <time>2025-11-12T14:10:18.000Z</time>
      </trkpt>
      <trkpt lat="43.4338" lon="6.6321">
        <ele>121</ele>
        <time>2025-11-12T14:10:30.000Z</time>
      </trkpt>
      <trkpt lat="43.43382" lon="6.63197">
        <ele>120</ele>
        <time>2025-11-12T14:10:42.000Z</time>
      </trkpt>
      <trkpt lat="43.43383" lon="6.63184">
        <ele>120</ele>
        <time>2025-11-12T14:10:51.000Z</time>
      </trkpt>
      <trkpt lat="43.43384" lon="6.63169">
        <ele>119</ele>
        <time>2025-11-12T14:11:03.000Z</time>
      </trkpt>
      <trkpt lat="43.43383" lon="6.63155">
        <ele>118</ele>
        <time>2025-11-12T14:11:15.000Z</time>
      </trkpt>
      <trkpt lat="43.43383" lon="6.63143">
        <ele>117</ele>
        <time>2025-11-12T14:11:30.000Z</time>
      </trkpt>
      <trkpt lat="43.43384" lon="6.63131">
        <ele>116</ele>
        <time>2025-11-12T14:11:39.000Z</time>
      </trkpt>
      <trkpt lat="43.43385" lon="6.63118">
        <ele>115</ele>
        <time>2025-11-12T14:11:51.000Z</time>
      </trkpt>
      <trkpt lat="43.43388" lon="6.63106">
        <ele>113</ele>
        <time>2025-11-12T14:12:06.000Z</time>
      </trkpt>
      <trkpt lat="43.43391" lon="6.63092">
        <ele>112</ele>
        <time>2025-11-12T14:12:18.000Z</time>
      </trkpt>
      <trkpt lat="43.43392" lon="6.63078">
        <ele>111</ele>
        <time>2025-11-12T14:12:27.000Z</time>
      </trkpt>
      <trkpt lat="43.43392" lon="6.63066">
        <ele>110</ele>
        <time>2025-11-12T14:12:39.000Z</time>
      </trkpt>
      <trkpt lat="43.43392" lon="6.63052">
        <ele>109</ele>
        <time>2025-11-12T14:12:51.000Z</time>
      </trkpt>
      <trkpt lat="43.43392" lon="6.63039">
        <ele>108</ele>
        <time>2025-11-12T14:13:03.000Z</time>
      </trkpt>
      <trkpt lat="43.43392" lon="6.63026">
        <ele>107</ele>
        <time>2025-11-12T14:13:15.000Z</time>
      </trkpt>
      <trkpt lat="43.43389" lon="6.63014">
        <ele>105</ele>
        <time>2025-11-12T14:13:27.000Z</time>
      </trkpt>
      <trkpt lat="43.43385" lon="6.63003">
        <ele>103</ele>
        <time>2025-11-12T14:13:39.000Z</time>
      </trkpt>
      <trkpt lat="43.43381" lon="6.62991">
        <ele>101</ele>
        <time>2025-11-12T14:14:00.000Z</time>
      </trkpt>
      <trkpt lat="43.43379" lon="6.62978">
        <ele>98</ele>
        <time>2025-11-12T14:14:18.000Z</time>
      </trkpt>
      <trkpt lat="43.4338" lon="6.62966">
        <ele>96</ele>
        <time>2025-11-12T14:14:36.000Z</time>
      </trkpt>
      <trkpt lat="43.43377" lon="6.62955">
        <ele>93</ele>
        <time>2025-11-12T14:14:57.000Z</time>
      </trkpt>
      <trkpt lat="43.43379" lon="6.62944">
        <ele>90</ele>
        <time>2025-11-12T14:15:15.000Z</time>
      </trkpt>
      <trkpt lat="43.43377" lon="6.62933">
        <ele>88</ele>
        <time>2025-11-12T14:15:39.000Z</time>
      </trkpt>
      <trkpt lat="43.4337" lon="6.62923">
        <ele>87</ele>
        <time>2025-11-12T14:16:03.000Z</time>
      </trkpt>
      <trkpt lat="43.43368" lon="6.62911">
        <ele>86</ele>
        <time>2025-11-12T14:16:21.000Z</time>
      </trkpt>
      <trkpt lat="43.43369" lon="6.62898">
        <ele>85</ele>
        <time>2025-11-12T14:16:33.000Z</time>
      </trkpt>
      <trkpt lat="43.43375" lon="6.62887">
        <ele>84</ele>
        <time>2025-11-12T14:16:42.000Z</time>
      </trkpt>
      <trkpt lat="43.4338" lon="6.62876">
        <ele>84</ele>
        <time>2025-11-12T14:16:54.000Z</time>
      </trkpt>
      <trkpt lat="43.43381" lon="6.62863">
        <ele>83</ele>
        <time>2025-11-12T14:17:09.000Z</time>
      </trkpt>
      <trkpt lat="43.43383" lon="6.6285">
        <ele>83</ele>
        <time>2025-11-12T14:17:21.000Z</time>
      </trkpt>
      <trkpt lat="43.43385" lon="6.62838">
        <ele>83</ele>
        <time>2025-11-12T14:17:33.000Z</time>
      </trkpt>
      <trkpt lat="43.43381" lon="6.62827">
        <ele>83</ele>
        <time>2025-11-12T14:17:48.000Z</time>
      </trkpt>
      <trkpt lat="43.43374" lon="6.62818">
        <ele>83</ele>
        <time>2025-11-12T14:18:00.000Z</time>
      </trkpt>
      <trkpt lat="43.43368" lon="6.62805">
        <ele>84</ele>
        <time>2025-11-12T14:18:18.000Z</time>
      </trkpt>
      <trkpt lat="43.43363" lon="6.62793">
        <ele>85</ele>
        <time>2025-11-12T14:18:33.000Z</time>
      </trkpt>
      <trkpt lat="43.43363" lon="6.6278">
        <ele>86</ele>
        <time>2025-11-12T14:18:45.000Z</time>
      </trkpt>
      <trkpt lat="43.43365" lon="6.62768">
        <ele>87</ele>
        <time>2025-11-12T14:18:57.000Z</time>
      </trkpt>
      <trkpt lat="43.43363" lon="6.62755">
        <ele>88</ele>
        <time>2025-11-12T14:19:09.000Z</time>
      </trkpt>
      <trkpt lat="43.43357" lon="6.62744">
        <ele>89</ele>
        <time>2025-11-12T14:19:21.000Z</time>
      </trkpt>
      <trkpt lat="43.4335" lon="6.62735">
        <ele>91</ele>
        <time>2025-11-12T14:19:30.000Z</time>
      </trkpt>
      <trkpt lat="43.43345" lon="6.62725">
        <ele>95</ele>
        <time>2025-11-12T14:19:39.000Z</time>
      </trkpt>
      <trkpt lat="43.43342" lon="6.62712">
        <ele>98</ele>
        <time>2025-11-12T14:19:51.000Z</time>
      </trkpt>
      <trkpt lat="43.43341" lon="6.62697">
        <ele>101</ele>
        <time>2025-11-12T14:20:00.000Z</time>
      </trkpt>
      <trkpt lat="43.43338" lon="6.62684">
        <ele>103</ele>
        <time>2025-11-12T14:20:15.000Z</time>
      </trkpt>
      <trkpt lat="43.43332" lon="6.62673">
        <ele>104</ele>
        <time>2025-11-12T14:32:15.000Z</time>
      </trkpt>
      <trkpt lat="43.43325" lon="6.62663">
        <ele>105</ele>
        <time>2025-11-12T14:32:27.000Z</time>
      </trkpt>
      <trkpt lat="43.43321" lon="6.62652">
        <ele>107</ele>
        <time>2025-11-12T14:32:42.000Z</time>
      </trkpt>
      <trkpt lat="43.43319" lon="6.62639">
        <ele>108</ele>
        <time>2025-11-12T14:32:54.000Z</time>
      </trkpt>
      <trkpt lat="43.43318" lon="6.62627">
        <ele>110</ele>
        <time>2025-11-12T14:33:03.000Z</time>
      </trkpt>
      <trkpt lat="43.43312" lon="6.62618">
        <ele>111</ele>
        <time>2025-11-12T14:33:12.000Z</time>
      </trkpt>
      <trkpt lat="43.43305" lon="6.62609">
        <ele>112</ele>
        <time>2025-11-12T14:33:27.000Z</time>
      </trkpt>
      <trkpt lat="43.43297" lon="6.62602">
        <ele>113</ele>
        <time>2025-11-12T14:33:36.000Z</time>
      </trkpt>
      <trkpt lat="43.43288" lon="6.62596">
        <ele>114</ele>
        <time>2025-11-12T14:33:48.000Z</time>
      </trkpt>
      <trkpt lat="43.43279" lon="6.62596">
        <ele>115</ele>
        <time>2025-11-12T14:34:03.000Z</time>
      </trkpt>
      <trkpt lat="43.43271" lon="6.62603">
        <ele>116</ele>
        <time>2025-11-12T14:34:21.000Z</time>
      </trkpt>
      <trkpt lat="43.43264" lon="6.62612">
        <ele>116</ele>
        <time>2025-11-12T14:34:33.000Z</time>
      </trkpt>
      <trkpt lat="43.43257" lon="6.6262">
        <ele>117</ele>
        <time>2025-11-12T14:34:45.000Z</time>
      </trkpt>
      <trkpt lat="43.43249" lon="6.62622">
        <ele>118</ele>
        <time>2025-11-12T14:35:00.000Z</time>
      </trkpt>
      <trkpt lat="43.43242" lon="6.62613">
        <ele>120</ele>
        <time>2025-11-12T14:35:12.000Z</time>
      </trkpt>
      <trkpt lat="43.43235" lon="6.62603">
        <ele>121</ele>
        <time>2025-11-12T14:35:21.000Z</time>
      </trkpt>
      <trkpt lat="43.43231" lon="6.62592">
        <ele>123</ele>
        <time>2025-11-12T14:35:30.000Z</time>
      </trkpt>
      <trkpt lat="43.43226" lon="6.62579">
        <ele>124</ele>
        <time>2025-11-12T14:35:39.000Z</time>
      </trkpt>
      <trkpt lat="43.43224" lon="6.62566">
        <ele>126</ele>
        <time>2025-11-12T14:35:48.000Z</time>
      </trkpt>
      <trkpt lat="43.43221" lon="6.62554">
        <ele>127</ele>
        <time>2025-11-12T14:35:57.000Z</time>
      </trkpt>
      <trkpt lat="43.4322" lon="6.62541">
        <ele>129</ele>
        <time>2025-11-12T14:36:06.000Z</time>
      </trkpt>
      <trkpt lat="43.43221" lon="6.62527">
        <ele>130</ele>
        <time>2025-11-12T14:36:15.000Z</time>
      </trkpt>
      <trkpt lat="43.43224" lon="6.62514">
        <ele>131</ele>
        <time>2025-11-12T14:36:24.000Z</time>
      </trkpt>
      <trkpt lat="43.43227" lon="6.62501">
        <ele>132</ele>
        <time>2025-11-12T14:36:33.000Z</time>
      </trkpt>
      <trkpt lat="43.43227" lon="6.62489">
        <ele>132</ele>
        <time>2025-11-12T14:36:42.000Z</time>
      </trkpt>
      <trkpt lat="43.4322" lon="6.62479">
        <ele>132</ele>
        <time>2025-11-12T14:36:54.000Z</time>
      </trkpt>
      <trkpt lat="43.43209" lon="6.62476">
        <ele>132</ele>
        <time>2025-11-12T14:37:06.000Z</time>
      </trkpt>
      <trkpt lat="43.43198" lon="6.62476">
        <ele>132</ele>
        <time>2025-11-12T14:37:16.000Z</time>
      </trkpt>
      <trkpt lat="43.43187" lon="6.62476">
        <ele>132</ele>
        <time>2025-11-12T14:37:26.000Z</time>
      </trkpt>
      <trkpt lat="43.43176" lon="6.62476">
        <ele>133</ele>
        <time>2025-11-12T14:37:35.000Z</time>
      </trkpt>
      <trkpt lat="43.43167" lon="6.62473">
        <ele>134</ele>
        <time>2025-11-12T14:37:43.000Z</time>
      </trkpt>
      <trkpt lat="43.43159" lon="6.62467">
        <ele>136</ele>
        <time>2025-11-12T14:37:52.000Z</time>
      </trkpt>
      <trkpt lat="43.43152" lon="6.6246">
        <ele>137</ele>
        <time>2025-11-12T14:38:18.000Z</time>
      </trkpt>
      <trkpt lat="43.43145" lon="6.62454">
        <ele>137</ele>
        <time>2025-11-12T14:39:15.000Z</time>
      </trkpt>
      <trkpt lat="43.4314" lon="6.62444">
        <ele>138</ele>
        <time>2025-11-12T14:39:24.000Z</time>
      </trkpt>
      <trkpt lat="43.43135" lon="6.62433">
        <ele>139</ele>
        <time>2025-11-12T14:39:33.000Z</time>
      </trkpt>
      <trkpt lat="43.43129" lon="6.62423">
        <ele>139</ele>
        <time>2025-11-12T14:39:42.000Z</time>
      </trkpt>
      <trkpt lat="43.43119" lon="6.62416">
        <ele>140</ele>
        <time>2025-11-12T14:39:54.000Z</time>
      </trkpt>
      <trkpt lat="43.43109" lon="6.62411">
        <ele>141</ele>
        <time>2025-11-12T14:40:06.000Z</time>
      </trkpt>
      <trkpt lat="43.43099" lon="6.62407">
        <ele>141</ele>
        <time>2025-11-12T14:40:18.000Z</time>
      </trkpt>
      <trkpt lat="43.4309" lon="6.62406">
        <ele>142</ele>
        <time>2025-11-12T14:40:27.000Z</time>
      </trkpt>
      <trkpt lat="43.43081" lon="6.62408">
        <ele>142</ele>
        <time>2025-11-12T14:40:36.000Z</time>
      </trkpt>
      <trkpt lat="43.43071" lon="6.62406">
        <ele>143</ele>
        <time>2025-11-12T14:40:45.000Z</time>
      </trkpt>
      <trkpt lat="43.43061" lon="6.62402">
        <ele>144</ele>
        <time>2025-11-12T14:40:54.000Z</time>
      </trkpt>
      <trkpt lat="43.43051" lon="6.624">
        <ele>144</ele>
        <time>2025-11-12T14:41:03.000Z</time>
      </trkpt>
      <trkpt lat="43.43039" lon="6.62396">
        <ele>145</ele>
        <time>2025-11-12T14:41:12.000Z</time>
      </trkpt>
      <trkpt lat="43.43029" lon="6.62391">
        <ele>146</ele>
        <time>2025-11-12T14:41:21.000Z</time>
      </trkpt>
      <trkpt lat="43.43019" lon="6.62389">
        <ele>146</ele>
        <time>2025-11-12T14:41:30.000Z</time>
      </trkpt>
      <trkpt lat="43.4301" lon="6.62389">
        <ele>146</ele>
        <time>2025-11-12T14:41:39.000Z</time>
      </trkpt>
      <trkpt lat="43.43001" lon="6.62387">
        <ele>147</ele>
        <time>2025-11-12T14:41:48.000Z</time>
      </trkpt>
      <trkpt lat="43.42991" lon="6.62384">
        <ele>148</ele>
        <time>2025-11-12T14:41:57.000Z</time>
      </trkpt>
      <trkpt lat="43.42982" lon="6.62381">
        <ele>148</ele>
        <time>2025-11-12T14:42:06.000Z</time>
      </trkpt>
      <trkpt lat="43.42972" lon="6.62377">
        <ele>149</ele>
        <time>2025-11-12T14:42:15.000Z</time>
      </trkpt>
      <trkpt lat="43.42962" lon="6.62374">
        <ele>149</ele>
        <time>2025-11-12T14:42:24.000Z</time>
      </trkpt>
      <trkpt lat="43.42953" lon="6.62372">
        <ele>150</ele>
        <time>2025-11-12T14:42:33.000Z</time>
      </trkpt>
      <trkpt lat="43.42944" lon="6.62365">
        <ele>150</ele>
        <time>2025-11-12T14:42:42.000Z</time>
      </trkpt>
      <trkpt lat="43.42935" lon="6.62356">
        <ele>151</ele>
        <time>2025-11-12T14:42:51.000Z</time>
      </trkpt>
      <trkpt lat="43.42926" lon="6.6235">
        <ele>151</ele>
        <time>2025-11-12T14:43:00.000Z</time>
      </trkpt>
      <trkpt lat="43.42918" lon="6.62342">
        <ele>152</ele>
        <time>2025-11-12T14:43:09.000Z</time>
      </trkpt>
      <trkpt lat="43.4291" lon="6.62334">
        <ele>153</ele>
        <time>2025-11-12T14:43:18.000Z</time>
      </trkpt>
      <trkpt lat="43.42902" lon="6.62324">
        <ele>154</ele>
        <time>2025-11-12T14:43:27.000Z</time>
      </trkpt>
      <trkpt lat="43.42895" lon="6.62315">
        <ele>154</ele>
        <time>2025-11-12T14:43:36.000Z</time>
      </trkpt>
      <trkpt lat="43.42888" lon="6.62305">
        <ele>154</ele>
        <time>2025-11-12T14:43:45.000Z</time>
      </trkpt>
      <trkpt lat="43.4288" lon="6.62299">
        <ele>155</ele>
        <time>2025-11-12T14:43:54.000Z</time>
      </trkpt>
      <trkpt lat="43.4287" lon="6.62294">
        <ele>155</ele>
        <time>2025-11-12T14:44:03.000Z</time>
      </trkpt>
      <trkpt lat="43.42861" lon="6.62288">
        <ele>155</ele>
        <time>2025-11-12T14:44:12.000Z</time>
      </trkpt>
      <trkpt lat="43.42852" lon="6.62283">
        <ele>156</ele>
        <time>2025-11-12T14:44:21.000Z</time>
      </trkpt>
      <trkpt lat="43.42841" lon="6.62275">
        <ele>156</ele>
        <time>2025-11-12T14:44:30.000Z</time>
      </trkpt>
      <trkpt lat="43.42833" lon="6.62268">
        <ele>156</ele>
        <time>2025-11-12T14:44:39.000Z</time>
      </trkpt>
      <trkpt lat="43.42825" lon="6.62261">
        <ele>157</ele>
        <time>2025-11-12T14:44:48.000Z</time>
      </trkpt>
      <trkpt lat="43.42817" lon="6.62253">
        <ele>157</ele>
        <time>2025-11-12T14:44:57.000Z</time>
      </trkpt>
      <trkpt lat="43.42807" lon="6.62244">
        <ele>157</ele>
        <time>2025-11-12T14:45:06.000Z</time>
      </trkpt>
      <trkpt lat="43.42797" lon="6.62237">
        <ele>157</ele>
        <time>2025-11-12T14:45:15.000Z</time>
      </trkpt>
      <trkpt lat="43.42788" lon="6.6223">
        <ele>158</ele>
        <time>2025-11-12T14:45:24.000Z</time>
      </trkpt>
      <trkpt lat="43.42779" lon="6.62223">
        <ele>158</ele>
        <time>2025-11-12T14:45:33.000Z</time>
      </trkpt>
      <trkpt lat="43.42768" lon="6.62217">
        <ele>158</ele>
        <time>2025-11-12T14:45:42.000Z</time>
      </trkpt>
      <trkpt lat="43.42759" lon="6.6221">
        <ele>159</ele>
        <time>2025-11-12T14:45:48.000Z</time>
      </trkpt>
      <trkpt lat="43.4275" lon="6.62203">
        <ele>159</ele>
        <time>2025-11-12T14:45:57.000Z</time>
      </trkpt>
      <trkpt lat="43.42741" lon="6.62198">
        <ele>159</ele>
        <time>2025-11-12T14:46:06.000Z</time>
      </trkpt>
      <trkpt lat="43.42731" lon="6.62191">
        <ele>159</ele>
        <time>2025-11-12T14:46:15.000Z</time>
      </trkpt>
      <trkpt lat="43.42721" lon="6.62184">
        <ele>159</ele>
        <time>2025-11-12T14:46:24.000Z</time>
      </trkpt>
      <trkpt lat="43.4271" lon="6.62181">
        <ele>159</ele>
        <time>2025-11-12T14:46:33.000Z</time>
      </trkpt>
      <trkpt lat="43.42699" lon="6.62178">
        <ele>159</ele>
        <time>2025-11-12T14:46:42.000Z</time>
      </trkpt>
      <trkpt lat="43.42689" lon="6.62174">
        <ele>159</ele>
        <time>2025-11-12T14:46:51.000Z</time>
      </trkpt>
      <trkpt lat="43.42679" lon="6.62169">
        <ele>160</ele>
        <time>2025-11-12T14:47:00.000Z</time>
      </trkpt>
      <trkpt lat="43.4267" lon="6.62162">
        <ele>161</ele>
        <time>2025-11-12T14:47:09.000Z</time>
      </trkpt>
      <trkpt lat="43.42664" lon="6.62152">
        <ele>162</ele>
        <time>2025-11-12T14:47:15.000Z</time>
      </trkpt>
      <trkpt lat="43.4266" lon="6.62141">
        <ele>163</ele>
        <time>2025-11-12T14:47:21.000Z</time>
      </trkpt>
      <trkpt lat="43.42653" lon="6.62131">
        <ele>163</ele>
        <time>2025-11-12T14:47:30.000Z</time>
      </trkpt>
      <trkpt lat="43.42644" lon="6.62122">
        <ele>163</ele>
        <time>2025-11-12T14:47:39.000Z</time>
      </trkpt>
      <trkpt lat="43.42636" lon="6.62115">
        <ele>163</ele>
        <time>2025-11-12T14:47:51.000Z</time>
      </trkpt>
      <trkpt lat="43.42636" lon="6.62106">
        <ele>162</ele>
        <time>2025-11-12T14:48:54.000Z</time>
      </trkpt>
      <trkpt lat="43.42644" lon="6.62105">
        <ele>162</ele>
        <time>2025-11-12T14:50:27.000Z</time>
      </trkpt>
      <trkpt lat="43.42654" lon="6.62106">
        <ele>161</ele>
        <time>2025-11-12T14:50:39.000Z</time>
      </trkpt>
      <trkpt lat="43.42663" lon="6.6211">
        <ele>159</ele>
        <time>2025-11-12T14:50:48.000Z</time>
      </trkpt>
      <trkpt lat="43.42671" lon="6.62119">
        <ele>158</ele>
        <time>2025-11-12T14:51:00.000Z</time>
      </trkpt>
      <trkpt lat="43.42676" lon="6.6213">
        <ele>156</ele>
        <time>2025-11-12T14:51:12.000Z</time>
      </trkpt>
      <trkpt lat="43.42682" lon="6.6214">
        <ele>155</ele>
        <time>2025-11-12T14:51:24.000Z</time>
      </trkpt>
      <trkpt lat="43.42691" lon="6.62143">
        <ele>153</ele>
        <time>2025-11-12T14:51:36.000Z</time>
      </trkpt>
      <trkpt lat="43.42701" lon="6.62143">
        <ele>152</ele>
        <time>2025-11-12T14:51:48.000Z</time>
      </trkpt>
      <trkpt lat="43.42712" lon="6.6214">
        <ele>150</ele>
        <time>2025-11-12T14:52:00.000Z</time>
      </trkpt>
      <trkpt lat="43.42722" lon="6.62138">
        <ele>149</ele>
        <time>2025-11-12T14:52:12.000Z</time>
      </trkpt>
      <trkpt lat="43.42732" lon="6.62137">
        <ele>147</ele>
        <time>2025-11-12T14:52:21.000Z</time>
      </trkpt>
      <trkpt lat="43.42742" lon="6.62137">
        <ele>145</ele>
        <time>2025-11-12T14:52:30.000Z</time>
      </trkpt>
      <trkpt lat="43.42752" lon="6.62137">
        <ele>143</ele>
        <time>2025-11-12T14:52:42.000Z</time>
      </trkpt>
      <trkpt lat="43.42764" lon="6.6214">
        <ele>142</ele>
        <time>2025-11-12T14:53:00.000Z</time>
      </trkpt>
      <trkpt lat="43.42773" lon="6.62144">
        <ele>140</ele>
        <time>2025-11-12T14:53:12.000Z</time>
      </trkpt>
      <trkpt lat="43.42784" lon="6.62147">
        <ele>138</ele>
        <time>2025-11-12T14:53:21.000Z</time>
      </trkpt>
      <trkpt lat="43.42794" lon="6.62149">
        <ele>137</ele>
        <time>2025-11-12T14:53:33.000Z</time>
      </trkpt>
      <trkpt lat="43.42806" lon="6.62152">
        <ele>135</ele>
        <time>2025-11-12T14:53:42.000Z</time>
      </trkpt>
      <trkpt lat="43.42815" lon="6.62154">
        <ele>133</ele>
        <time>2025-11-12T14:53:51.000Z</time>
      </trkpt>
      <trkpt lat="43.42825" lon="6.62155">
        <ele>131</ele>
        <time>2025-11-12T14:54:00.000Z</time>
      </trkpt>
      <trkpt lat="43.42833" lon="6.62158">
        <ele>130</ele>
        <time>2025-11-12T14:54:09.000Z</time>
      </trkpt>
      <trkpt lat="43.42842" lon="6.62165">
        <ele>128</ele>
        <time>2025-11-12T14:54:21.000Z</time>
      </trkpt>
      <trkpt lat="43.42851" lon="6.62171">
        <ele>127</ele>
        <time>2025-11-12T14:54:33.000Z</time>
      </trkpt>
      <trkpt lat="43.42861" lon="6.62179">
        <ele>125</ele>
        <time>2025-11-12T14:54:48.000Z</time>
      </trkpt>
      <trkpt lat="43.4287" lon="6.62186">
        <ele>123</ele>
        <time>2025-11-12T14:55:00.000Z</time>
      </trkpt>
      <trkpt lat="43.42879" lon="6.62191">
        <ele>122</ele>
        <time>2025-11-12T14:55:09.000Z</time>
      </trkpt>
      <trkpt lat="43.42887" lon="6.62199">
        <ele>120</ele>
        <time>2025-11-12T14:55:21.000Z</time>
      </trkpt>
      <trkpt lat="43.42895" lon="6.62207">
        <ele>118</ele>
        <time>2025-11-12T14:55:33.000Z</time>
      </trkpt>
      <trkpt lat="43.42904" lon="6.62213">
        <ele>117</ele>
        <time>2025-11-12T14:55:42.000Z</time>
      </trkpt>
      <trkpt lat="43.42914" lon="6.62219">
        <ele>116</ele>
        <time>2025-11-12T14:55:51.000Z</time>
      </trkpt>
      <trkpt lat="43.42923" lon="6.62225">
        <ele>114</ele>
        <time>2025-11-12T14:56:00.000Z</time>
      </trkpt>
      <trkpt lat="43.42933" lon="6.6223">
        <ele>113</ele>
        <time>2025-11-12T14:56:09.000Z</time>
      </trkpt>
      <trkpt lat="43.42943" lon="6.62234">
        <ele>111</ele>
        <time>2025-11-12T14:56:18.000Z</time>
      </trkpt>
      <trkpt lat="43.42953" lon="6.62236">
        <ele>110</ele>
        <time>2025-11-12T14:56:27.000Z</time>
      </trkpt>
      <trkpt lat="43.42964" lon="6.62241">
        <ele>109</ele>
        <time>2025-11-12T14:56:36.000Z</time>
      </trkpt>
      <trkpt lat="43.42974" lon="6.62244">
        <ele>108</ele>
        <time>2025-11-12T14:56:45.000Z</time>
      </trkpt>
      <trkpt lat="43.42985" lon="6.62245">
        <ele>107</ele>
        <time>2025-11-12T14:56:54.000Z</time>
      </trkpt>
      <trkpt lat="43.42995" lon="6.62244">
        <ele>105</ele>
        <time>2025-11-12T14:57:03.000Z</time>
      </trkpt>
      <trkpt lat="43.43004" lon="6.62244">
        <ele>104</ele>
        <time>2025-11-12T14:57:12.000Z</time>
      </trkpt>
      <trkpt lat="43.43013" lon="6.62245">
        <ele>103</ele>
        <time>2025-11-12T14:57:21.000Z</time>
      </trkpt>
      <trkpt lat="43.43024" lon="6.62244">
        <ele>102</ele>
        <time>2025-11-12T14:57:33.000Z</time>
      </trkpt>
      <trkpt lat="43.43035" lon="6.62241">
        <ele>100</ele>
        <time>2025-11-12T14:57:45.000Z</time>
      </trkpt>
      <trkpt lat="43.43047" lon="6.6224">
        <ele>99</ele>
        <time>2025-11-12T14:57:54.000Z</time>
      </trkpt>
      <trkpt lat="43.43057" lon="6.62238">
        <ele>97</ele>
        <time>2025-11-12T14:58:03.000Z</time>
      </trkpt>
      <trkpt lat="43.43067" lon="6.62238">
        <ele>96</ele>
        <time>2025-11-12T14:58:15.000Z</time>
      </trkpt>
      <trkpt lat="43.43076" lon="6.62237">
        <ele>95</ele>
        <time>2025-11-12T14:58:27.000Z</time>
      </trkpt>
      <trkpt lat="43.43086" lon="6.62233">
        <ele>93</ele>
        <time>2025-11-12T14:58:39.000Z</time>
      </trkpt>
      <trkpt lat="43.43096" lon="6.6223">
        <ele>92</ele>
        <time>2025-11-12T14:58:48.000Z</time>
      </trkpt>
      <trkpt lat="43.43105" lon="6.62225">
        <ele>91</ele>
        <time>2025-11-12T14:59:00.000Z</time>
      </trkpt>
      <trkpt lat="43.43116" lon="6.6222">
        <ele>89</ele>
        <time>2025-11-12T14:59:09.000Z</time>
      </trkpt>
      <trkpt lat="43.43129" lon="6.62218">
        <ele>87</ele>
        <time>2025-11-12T14:59:24.000Z</time>
      </trkpt>
      <trkpt lat="43.4314" lon="6.62219">
        <ele>86</ele>
        <time>2025-11-12T14:59:33.000Z</time>
      </trkpt>
      <trkpt lat="43.43151" lon="6.62223">
        <ele>84</ele>
        <time>2025-11-12T14:59:42.000Z</time>
      </trkpt>
      <trkpt lat="43.4316" lon="6.62231">
        <ele>83</ele>
        <time>2025-11-12T14:59:51.000Z</time>
      </trkpt>
      <trkpt lat="43.43168" lon="6.6224">
        <ele>82</ele>
        <time>2025-11-12T15:00:00.000Z</time>
      </trkpt>
      <trkpt lat="43.43178" lon="6.62248">
        <ele>81</ele>
        <time>2025-11-12T15:00:09.000Z</time>
      </trkpt>
      <trkpt lat="43.43187" lon="6.62253">
        <ele>79</ele>
        <time>2025-11-12T15:00:18.000Z</time>
      </trkpt>
      <trkpt lat="43.43198" lon="6.62255">
        <ele>78</ele>
        <time>2025-11-12T15:00:27.000Z</time>
      </trkpt>
      <trkpt lat="43.43208" lon="6.62257">
        <ele>77</ele>
        <time>2025-11-12T15:00:36.000Z</time>
      </trkpt>
      <trkpt lat="43.43218" lon="6.62258">
        <ele>76</ele>
        <time>2025-11-12T15:00:45.000Z</time>
      </trkpt>
      <trkpt lat="43.43227" lon="6.6226">
        <ele>75</ele>
        <time>2025-11-12T15:00:54.000Z</time>
      </trkpt>
      <trkpt lat="43.43237" lon="6.62263">
        <ele>74</ele>
        <time>2025-11-12T15:01:03.000Z</time>
      </trkpt>
      <trkpt lat="43.43246" lon="6.62267">
        <ele>74</ele>
        <time>2025-11-12T15:01:12.000Z</time>
      </trkpt>
      <trkpt lat="43.43255" lon="6.62271">
        <ele>74</ele>
        <time>2025-11-12T15:01:48.000Z</time>
      </trkpt>
      <trkpt lat="43.43262" lon="6.6228">
        <ele>74</ele>
        <time>2025-11-12T15:02:00.000Z</time>
      </trkpt>
      <trkpt lat="43.43272" lon="6.62277">
        <ele>73</ele>
        <time>2025-11-12T15:02:12.000Z</time>
      </trkpt>
      <trkpt lat="43.4328" lon="6.62268">
        <ele>73</ele>
        <time>2025-11-12T15:02:21.000Z</time>
      </trkpt>
      <trkpt lat="43.43282" lon="6.62257">
        <ele>72</ele>
        <time>2025-11-12T15:05:36.000Z</time>
      </trkpt>
      <trkpt lat="43.43276" lon="6.62248">
        <ele>71</ele>
        <time>2025-11-12T15:06:03.000Z</time>
      </trkpt>
      <trkpt lat="43.43268" lon="6.62241">
        <ele>70</ele>
        <time>2025-11-12T15:06:57.000Z</time>
      </trkpt>
      <trkpt lat="43.43266" lon="6.6223">
        <ele>69</ele>
        <time>2025-11-12T15:07:15.000Z</time>
      </trkpt>
      <trkpt lat="43.43269" lon="6.62223">
        <ele>68</ele>
        <time>2025-11-12T15:07:33.000Z</time>
      </trkpt>
      <trkpt lat="43.43264" lon="6.62229">
        <ele>67</ele>
        <time>2025-11-12T15:11:24.000Z</time>
      </trkpt>
      <trkpt lat="43.43265" lon="6.62239">
        <ele>67</ele>
        <time>2025-11-12T15:11:36.000Z</time>
      </trkpt>
      <trkpt lat="43.43271" lon="6.62248">
        <ele>68</ele>
        <time>2025-11-12T15:11:45.000Z</time>
      </trkpt>
      <trkpt lat="43.43279" lon="6.62255">
        <ele>68</ele>
        <time>2025-11-12T15:12:06.000Z</time>
      </trkpt>
      <trkpt lat="43.43288" lon="6.62262">
        <ele>68</ele>
        <time>2025-11-12T15:12:21.000Z</time>
      </trkpt>
      <trkpt lat="43.43295" lon="6.62268">
        <ele>68</ele>
        <time>2025-11-12T15:12:30.000Z</time>
      </trkpt>
      <trkpt lat="43.43301" lon="6.6228">
        <ele>69</ele>
        <time>2025-11-12T15:12:42.000Z</time>
      </trkpt>
      <trkpt lat="43.43306" lon="6.62292">
        <ele>68</ele>
        <time>2025-11-12T15:12:51.000Z</time>
      </trkpt>
      <trkpt lat="43.43315" lon="6.62292">
        <ele>69</ele>
        <time>2025-11-12T15:13:00.000Z</time>
      </trkpt>
      <trkpt lat="43.43323" lon="6.62283">
        <ele>69</ele>
        <time>2025-11-12T15:13:09.000Z</time>
      </trkpt>
      <trkpt lat="43.43332" lon="6.6228">
        <ele>69</ele>
        <time>2025-11-12T15:13:18.000Z</time>
      </trkpt>
      <trkpt lat="43.43341" lon="6.62286">
        <ele>69</ele>
        <time>2025-11-12T15:13:27.000Z</time>
      </trkpt>
      <trkpt lat="43.4335" lon="6.62292">
        <ele>69</ele>
        <time>2025-11-12T15:13:36.000Z</time>
      </trkpt>
      <trkpt lat="43.43361" lon="6.62298">
        <ele>69</ele>
        <time>2025-11-12T15:13:48.000Z</time>
      </trkpt>
      <trkpt lat="43.43373" lon="6.62304">
        <ele>69</ele>
        <time>2025-11-12T15:13:57.000Z</time>
      </trkpt>
      <trkpt lat="43.43384" lon="6.62309">
        <ele>69</ele>
        <time>2025-11-12T15:14:06.000Z</time>
      </trkpt>
      <trkpt lat="43.43393" lon="6.62311">
        <ele>70</ele>
        <time>2025-11-12T15:14:21.000Z</time>
      </trkpt>
      <trkpt lat="43.43401" lon="6.62317">
        <ele>70</ele>
        <time>2025-11-12T15:14:30.000Z</time>
      </trkpt>
      <trkpt lat="43.43406" lon="6.62329">
        <ele>70</ele>
        <time>2025-11-12T15:14:39.000Z</time>
      </trkpt>
      <trkpt lat="43.43407" lon="6.62341">
        <ele>71</ele>
        <time>2025-11-12T15:14:48.000Z</time>
      </trkpt>
      <trkpt lat="43.43407" lon="6.62355">
        <ele>71</ele>
        <time>2025-11-12T15:14:57.000Z</time>
      </trkpt>
      <trkpt lat="43.43412" lon="6.62366">
        <ele>71</ele>
        <time>2025-11-12T15:15:06.000Z</time>
      </trkpt>
      <trkpt lat="43.43419" lon="6.62361">
        <ele>72</ele>
        <time>2025-11-12T15:15:15.000Z</time>
      </trkpt>
      <trkpt lat="43.43425" lon="6.6235">
        <ele>72</ele>
        <time>2025-11-12T15:15:24.000Z</time>
      </trkpt>
      <trkpt lat="43.43433" lon="6.62341">
        <ele>72</ele>
        <time>2025-11-12T15:15:36.000Z</time>
      </trkpt>
      <trkpt lat="43.4344" lon="6.62332">
        <ele>73</ele>
        <time>2025-11-12T15:15:45.000Z</time>
      </trkpt>
      <trkpt lat="43.43449" lon="6.62326">
        <ele>73</ele>
        <time>2025-11-12T15:15:54.000Z</time>
      </trkpt>
      <trkpt lat="43.43457" lon="6.62321">
        <ele>73</ele>
        <time>2025-11-12T15:16:03.000Z</time>
      </trkpt>
      <trkpt lat="43.43466" lon="6.62316">
        <ele>74</ele>
        <time>2025-11-12T15:16:12.000Z</time>
      </trkpt>
      <trkpt lat="43.43475" lon="6.62312">
        <ele>74</ele>
        <time>2025-11-12T15:16:21.000Z</time>
      </trkpt>
      <trkpt lat="43.43486" lon="6.62308">
        <ele>74</ele>
        <time>2025-11-12T15:16:30.000Z</time>
      </trkpt>
      <trkpt lat="43.43497" lon="6.62305">
        <ele>74</ele>
        <time>2025-11-12T15:16:39.000Z</time>
      </trkpt>
      <trkpt lat="43.43508" lon="6.62302">
        <ele>74</ele>
        <time>2025-11-12T15:16:48.000Z</time>
      </trkpt>
      <trkpt lat="43.43519" lon="6.62297">
        <ele>73</ele>
        <time>2025-11-12T15:16:57.000Z</time>
      </trkpt>
      <trkpt lat="43.43529" lon="6.62291">
        <ele>73</ele>
        <time>2025-11-12T15:17:06.000Z</time>
      </trkpt>
      <trkpt lat="43.43538" lon="6.62283">
        <ele>73</ele>
        <time>2025-11-12T15:17:15.000Z</time>
      </trkpt>
      <trkpt lat="43.43547" lon="6.62276">
        <ele>72</ele>
        <time>2025-11-12T15:17:24.000Z</time>
      </trkpt>
      <trkpt lat="43.43555" lon="6.62269">
        <ele>72</ele>
        <time>2025-11-12T15:17:33.000Z</time>
      </trkpt>
      <trkpt lat="43.43566" lon="6.62263">
        <ele>71</ele>
        <time>2025-11-12T15:17:42.000Z</time>
      </trkpt>
      <trkpt lat="43.43576" lon="6.62257">
        <ele>71</ele>
        <time>2025-11-12T15:17:51.000Z</time>
      </trkpt>
      <trkpt lat="43.43586" lon="6.62251">
        <ele>70</ele>
        <time>2025-11-12T15:18:03.000Z</time>
      </trkpt>
      <trkpt lat="43.43596" lon="6.62245">
        <ele>69</ele>
        <time>2025-11-12T15:18:12.000Z</time>
      </trkpt>
      <trkpt lat="43.43607" lon="6.6224">
        <ele>68</ele>
        <time>2025-11-12T15:18:21.000Z</time>
      </trkpt>
      <trkpt lat="43.43616" lon="6.62237">
        <ele>68</ele>
        <time>2025-11-12T15:18:30.000Z</time>
      </trkpt>
      <trkpt lat="43.43626" lon="6.62235">
        <ele>67</ele>
        <time>2025-11-12T15:18:39.000Z</time>
      </trkpt>
      <trkpt lat="43.43638" lon="6.62232">
        <ele>67</ele>
        <time>2025-11-12T15:18:48.000Z</time>
      </trkpt>
      <trkpt lat="43.43649" lon="6.6223">
        <ele>66</ele>
        <time>2025-11-12T15:18:57.000Z</time>
      </trkpt>
      <trkpt lat="43.43658" lon="6.62232">
        <ele>65</ele>
        <time>2025-11-12T15:19:06.000Z</time>
      </trkpt>
      <trkpt lat="43.43667" lon="6.62236">
        <ele>65</ele>
        <time>2025-11-12T15:19:15.000Z</time>
      </trkpt>
      <trkpt lat="43.43677" lon="6.62242">
        <ele>64</ele>
        <time>2025-11-12T15:19:24.000Z</time>
      </trkpt>
      <trkpt lat="43.43686" lon="6.62249">
        <ele>63</ele>
        <time>2025-11-12T15:19:33.000Z</time>
      </trkpt>
      <trkpt lat="43.43698" lon="6.62254">
        <ele>63</ele>
        <time>2025-11-12T15:19:42.000Z</time>
      </trkpt>
      <trkpt lat="43.43709" lon="6.62258">
        <ele>62</ele>
        <time>2025-11-12T15:19:51.000Z</time>
      </trkpt>
      <trkpt lat="43.43718" lon="6.62261">
        <ele>61</ele>
        <time>2025-11-12T15:20:00.000Z</time>
      </trkpt>
      <trkpt lat="43.43729" lon="6.62264">
        <ele>61</ele>
        <time>2025-11-12T15:20:09.000Z</time>
      </trkpt>
      <trkpt lat="43.4374" lon="6.62268">
        <ele>60</ele>
        <time>2025-11-12T15:20:18.000Z</time>
      </trkpt>
      <trkpt lat="43.4375" lon="6.62274">
        <ele>60</ele>
        <time>2025-11-12T15:20:27.000Z</time>
      </trkpt>
      <trkpt lat="43.43759" lon="6.62279">
        <ele>59</ele>
        <time>2025-11-12T15:20:36.000Z</time>
      </trkpt>
      <trkpt lat="43.43768" lon="6.62281">
        <ele>59</ele>
        <time>2025-11-12T15:20:42.000Z</time>
      </trkpt>
      <trkpt lat="43.43778" lon="6.62283">
        <ele>59</ele>
        <time>2025-11-12T15:20:51.000Z</time>
      </trkpt>
      <trkpt lat="43.43788" lon="6.62286">
        <ele>59</ele>
        <time>2025-11-12T15:21:00.000Z</time>
      </trkpt>
      <trkpt lat="43.43798" lon="6.62286">
        <ele>59</ele>
        <time>2025-11-12T15:21:09.000Z</time>
      </trkpt>
      <trkpt lat="43.43808" lon="6.62287">
        <ele>59</ele>
        <time>2025-11-12T15:21:18.000Z</time>
      </trkpt>
      <trkpt lat="43.4382" lon="6.62289">
        <ele>59</ele>
        <time>2025-11-12T15:21:27.000Z</time>
      </trkpt>
      <trkpt lat="43.43831" lon="6.6229">
        <ele>59</ele>
        <time>2025-11-12T15:21:36.000Z</time>
      </trkpt>
      <trkpt lat="43.43841" lon="6.62291">
        <ele>60</ele>
        <time>2025-11-12T15:21:45.000Z</time>
      </trkpt>
      <trkpt lat="43.4385" lon="6.62293">
        <ele>60</ele>
        <time>2025-11-12T15:21:57.000Z</time>
      </trkpt>
      <trkpt lat="43.43861" lon="6.62299">
        <ele>60</ele>
        <time>2025-11-12T15:22:03.000Z</time>
      </trkpt>
      <trkpt lat="43.43873" lon="6.62302">
        <ele>61</ele>
        <time>2025-11-12T15:22:15.000Z</time>
      </trkpt>
      <trkpt lat="43.43883" lon="6.62302">
        <ele>62</ele>
        <time>2025-11-12T15:22:24.000Z</time>
      </trkpt>
      <trkpt lat="43.43893" lon="6.62307">
        <ele>63</ele>
        <time>2025-11-12T15:22:33.000Z</time>
      </trkpt>
      <trkpt lat="43.43902" lon="6.62314">
        <ele>64</ele>
        <time>2025-11-12T15:22:42.000Z</time>
      </trkpt>
      <trkpt lat="43.43911" lon="6.62314">
        <ele>65</ele>
        <time>2025-11-12T15:22:51.000Z</time>
      </trkpt>
      <trkpt lat="43.43921" lon="6.62311">
        <ele>66</ele>
        <time>2025-11-12T15:23:00.000Z</time>
      </trkpt>
      <trkpt lat="43.43931" lon="6.6231">
        <ele>67</ele>
        <time>2025-11-12T15:23:09.000Z</time>
      </trkpt>
      <trkpt lat="43.4394" lon="6.62316">
        <ele>68</ele>
        <time>2025-11-12T15:23:18.000Z</time>
      </trkpt>
      <trkpt lat="43.43949" lon="6.62322">
        <ele>69</ele>
        <time>2025-11-12T15:23:27.000Z</time>
      </trkpt>
      <trkpt lat="43.43958" lon="6.62325">
        <ele>70</ele>
        <time>2025-11-12T15:23:36.000Z</time>
      </trkpt>
      <trkpt lat="43.43968" lon="6.62322">
        <ele>71</ele>
        <time>2025-11-12T15:23:45.000Z</time>
      </trkpt>
      <trkpt lat="43.43979" lon="6.62317">
        <ele>72</ele>
        <time>2025-11-12T15:23:54.000Z</time>
      </trkpt>
      <trkpt lat="43.4399" lon="6.62316">
        <ele>72</ele>
        <time>2025-11-12T15:24:03.000Z</time>
      </trkpt>
      <trkpt lat="43.43999" lon="6.62319">
        <ele>73</ele>
        <time>2025-11-12T15:24:12.000Z</time>
      </trkpt>
      <trkpt lat="43.44008" lon="6.62323">
        <ele>74</ele>
        <time>2025-11-12T15:24:18.000Z</time>
      </trkpt>
      <trkpt lat="43.44019" lon="6.62327">
        <ele>75</ele>
        <time>2025-11-12T15:24:27.000Z</time>
      </trkpt>
      <trkpt lat="43.4403" lon="6.62333">
        <ele>76</ele>
        <time>2025-11-12T15:24:39.000Z</time>
      </trkpt>
      <trkpt lat="43.4404" lon="6.6234">
        <ele>76</ele>
        <time>2025-11-12T15:24:48.000Z</time>
      </trkpt>
      <trkpt lat="43.44049" lon="6.62346">
        <ele>77</ele>
        <time>2025-11-12T15:24:57.000Z</time>
      </trkpt>
      <trkpt lat="43.44059" lon="6.62351">
        <ele>77</ele>
        <time>2025-11-12T15:25:06.000Z</time>
      </trkpt>
      <trkpt lat="43.44068" lon="6.62356">
        <ele>77</ele>
        <time>2025-11-12T15:25:12.000Z</time>
      </trkpt>
      <trkpt lat="43.44075" lon="6.62364">
        <ele>77</ele>
        <time>2025-11-12T15:25:21.000Z</time>
      </trkpt>
      <trkpt lat="43.44079" lon="6.62377">
        <ele>78</ele>
        <time>2025-11-12T15:25:30.000Z</time>
      </trkpt>
      <trkpt lat="43.44079" lon="6.62391">
        <ele>79</ele>
        <time>2025-11-12T15:25:39.000Z</time>
      </trkpt>
      <trkpt lat="43.44077" lon="6.62404">
        <ele>80</ele>
        <time>2025-11-12T15:25:48.000Z</time>
      </trkpt>
      <trkpt lat="43.44075" lon="6.62419">
        <ele>81</ele>
        <time>2025-11-12T15:25:57.000Z</time>
      </trkpt>
      <trkpt lat="43.44073" lon="6.62432">
        <ele>81</ele>
        <time>2025-11-12T15:26:12.000Z</time>
      </trkpt>
      <trkpt lat="43.44069" lon="6.62445">
        <ele>82</ele>
        <time>2025-11-12T15:26:21.000Z</time>
      </trkpt>
      <trkpt lat="43.44066" lon="6.62459">
        <ele>83</ele>
        <time>2025-11-12T15:26:30.000Z</time>
      </trkpt>
      <trkpt lat="43.44064" lon="6.62471">
        <ele>84</ele>
        <time>2025-11-12T15:26:39.000Z</time>
      </trkpt>
      <trkpt lat="43.44061" lon="6.62485">
        <ele>85</ele>
        <time>2025-11-12T15:26:48.000Z</time>
      </trkpt>
      <trkpt lat="43.44056" lon="6.62497">
        <ele>85</ele>
        <time>2025-11-12T15:26:57.000Z</time>
      </trkpt>
      <trkpt lat="43.44054" lon="6.6251">
        <ele>86</ele>
        <time>2025-11-12T15:27:06.000Z</time>
      </trkpt>
      <trkpt lat="43.44052" lon="6.62523">
        <ele>87</ele>
        <time>2025-11-12T15:27:15.000Z</time>
      </trkpt>
      <trkpt lat="43.44049" lon="6.62536">
        <ele>88</ele>
        <time>2025-11-12T15:27:24.000Z</time>
      </trkpt>
      <trkpt lat="43.44047" lon="6.62549">
        <ele>90</ele>
        <time>2025-11-12T15:27:33.000Z</time>
      </trkpt>
      <trkpt lat="43.44042" lon="6.62561">
        <ele>91</ele>
        <time>2025-11-12T15:27:42.000Z</time>
      </trkpt>
      <trkpt lat="43.44037" lon="6.62575">
        <ele>92</ele>
        <time>2025-11-12T15:27:51.000Z</time>
      </trkpt>
      <trkpt lat="43.44033" lon="6.62588">
        <ele>94</ele>
        <time>2025-11-12T15:28:00.000Z</time>
      </trkpt>
      <trkpt lat="43.44031" lon="6.626">
        <ele>95</ele>
        <time>2025-11-12T15:28:09.000Z</time>
      </trkpt>
      <trkpt lat="43.4403" lon="6.62615">
        <ele>96</ele>
        <time>2025-11-12T15:28:18.000Z</time>
      </trkpt>
      <trkpt lat="43.44028" lon="6.62629">
        <ele>96</ele>
        <time>2025-11-12T15:28:27.000Z</time>
      </trkpt>
      <trkpt lat="43.44025" lon="6.62643">
        <ele>97</ele>
        <time>2025-11-12T15:28:36.000Z</time>
      </trkpt>
      <trkpt lat="43.44022" lon="6.62658">
        <ele>98</ele>
        <time>2025-11-12T15:28:45.000Z</time>
      </trkpt>
      <trkpt lat="43.44025" lon="6.62672">
        <ele>99</ele>
        <time>2025-11-12T15:28:54.000Z</time>
      </trkpt>
      <trkpt lat="43.4403" lon="6.62683">
        <ele>99</ele>
        <time>2025-11-12T15:29:03.000Z</time>
      </trkpt>
      <trkpt lat="43.44034" lon="6.62696">
        <ele>100</ele>
        <time>2025-11-12T15:29:12.000Z</time>
      </trkpt>
      <trkpt lat="43.44039" lon="6.62708">
        <ele>101</ele>
        <time>2025-11-12T15:29:18.000Z</time>
      </trkpt>
      <trkpt lat="43.44043" lon="6.62721">
        <ele>102</ele>
        <time>2025-11-12T15:29:27.000Z</time>
      </trkpt>
      <trkpt lat="43.44046" lon="6.62736">
        <ele>103</ele>
        <time>2025-11-12T15:29:36.000Z</time>
      </trkpt>
      <trkpt lat="43.44052" lon="6.62746">
        <ele>104</ele>
        <time>2025-11-12T15:29:45.000Z</time>
      </trkpt>
      <trkpt lat="43.4406" lon="6.62756">
        <ele>105</ele>
        <time>2025-11-12T15:29:54.000Z</time>
      </trkpt>
      <trkpt lat="43.44068" lon="6.62765">
        <ele>106</ele>
        <time>2025-11-12T15:30:03.000Z</time>
      </trkpt>
      <trkpt lat="43.44074" lon="6.62777">
        <ele>107</ele>
        <time>2025-11-12T15:30:15.000Z</time>
      </trkpt>
      <trkpt lat="43.44078" lon="6.62788">
        <ele>107</ele>
        <time>2025-11-12T15:31:50.000Z</time>
      </trkpt>
      <trkpt lat="43.44084" lon="6.62797">
        <ele>107</ele>
        <time>2025-11-12T15:34:11.000Z</time>
      </trkpt>
      <trkpt lat="43.44091" lon="6.62807">
        <ele>107</ele>
        <time>2025-11-12T15:34:23.000Z</time>
      </trkpt>
      <trkpt lat="43.44094" lon="6.62819">
        <ele>106</ele>
        <time>2025-11-12T15:34:35.000Z</time>
      </trkpt>
      <trkpt lat="43.44091" lon="6.62833">
        <ele>105</ele>
        <time>2025-11-12T15:34:47.000Z</time>
      </trkpt>
      <trkpt lat="43.44088" lon="6.62847">
        <ele>104</ele>
        <time>2025-11-12T15:34:59.000Z</time>
      </trkpt>
      <trkpt lat="43.44087" lon="6.62861">
        <ele>104</ele>
        <time>2025-11-12T15:35:11.000Z</time>
      </trkpt>
      <trkpt lat="43.44086" lon="6.62875">
        <ele>103</ele>
        <time>2025-11-12T15:35:20.000Z</time>
      </trkpt>
      <trkpt lat="43.44088" lon="6.62889">
        <ele>102</ele>
        <time>2025-11-12T15:35:29.000Z</time>
      </trkpt>
      <trkpt lat="43.4409" lon="6.62901">
        <ele>101</ele>
        <time>2025-11-12T15:35:38.000Z</time>
      </trkpt>
      <trkpt lat="43.44092" lon="6.62916">
        <ele>100</ele>
        <time>2025-11-12T15:35:47.000Z</time>
      </trkpt>
      <trkpt lat="43.44093" lon="6.62932">
        <ele>99</ele>
        <time>2025-11-12T15:35:56.000Z</time>
      </trkpt>
      <trkpt lat="43.44095" lon="6.62945">
        <ele>98</ele>
        <time>2025-11-12T15:36:05.000Z</time>
      </trkpt>
      <trkpt lat="43.44097" lon="6.6296">
        <ele>97</ele>
        <time>2025-11-12T15:36:14.000Z</time>
      </trkpt>
      <trkpt lat="43.44097" lon="6.62974">
        <ele>95</ele>
        <time>2025-11-12T15:36:23.000Z</time>
      </trkpt>
      <trkpt lat="43.44097" lon="6.62987">
        <ele>95</ele>
        <time>2025-11-12T15:36:32.000Z</time>
      </trkpt>
      <trkpt lat="43.44097" lon="6.63002">
        <ele>94</ele>
        <time>2025-11-12T15:36:41.000Z</time>
      </trkpt>
      <trkpt lat="43.44097" lon="6.63016">
        <ele>94</ele>
        <time>2025-11-12T15:36:50.000Z</time>
      </trkpt>
      <trkpt lat="43.44096" lon="6.6303">
        <ele>93</ele>
        <time>2025-11-12T15:36:59.000Z</time>
      </trkpt>
      <trkpt lat="43.44096" lon="6.63043">
        <ele>93</ele>
        <time>2025-11-12T15:37:08.000Z</time>
      </trkpt>
      <trkpt lat="43.44095" lon="6.63058">
        <ele>93</ele>
        <time>2025-11-12T15:37:17.000Z</time>
      </trkpt>
      <trkpt lat="43.44098" lon="6.63073">
        <ele>93</ele>
        <time>2025-11-12T15:37:26.000Z</time>
      </trkpt>
      <trkpt lat="43.44102" lon="6.63087">
        <ele>92</ele>
        <time>2025-11-12T15:37:35.000Z</time>
      </trkpt>
      <trkpt lat="43.44104" lon="6.63101">
        <ele>92</ele>
        <time>2025-11-12T15:37:47.000Z</time>
      </trkpt>
      <trkpt lat="43.44102" lon="6.63115">
        <ele>92</ele>
        <time>2025-11-12T15:37:56.000Z</time>
      </trkpt>
      <trkpt lat="43.44099" lon="6.63127">
        <ele>91</ele>
        <time>2025-11-12T15:38:05.000Z</time>
      </trkpt>
      <trkpt lat="43.44094" lon="6.6314">
        <ele>91</ele>
        <time>2025-11-12T15:38:14.000Z</time>
      </trkpt>
      <trkpt lat="43.44089" lon="6.63154">
        <ele>91</ele>
        <time>2025-11-12T15:38:23.000Z</time>
      </trkpt>
      <trkpt lat="43.44085" lon="6.63168">
        <ele>91</ele>
        <time>2025-11-12T15:38:32.000Z</time>
      </trkpt>
      <trkpt lat="43.44081" lon="6.6318">
        <ele>91</ele>
        <time>2025-11-12T15:38:41.000Z</time>
      </trkpt>
      <trkpt lat="43.44076" lon="6.63192">
        <ele>91</ele>
        <time>2025-11-12T15:38:50.000Z</time>
      </trkpt>
      <trkpt lat="43.4407" lon="6.63204">
        <ele>91</ele>
        <time>2025-11-12T15:38:59.000Z</time>
      </trkpt>
      <trkpt lat="43.44061" lon="6.63213">
        <ele>91</ele>
        <time>2025-11-12T15:39:08.000Z</time>
      </trkpt>
      <trkpt lat="43.44051" lon="6.63221">
        <ele>91</ele>
        <time>2025-11-12T15:39:17.000Z</time>
      </trkpt>
      <trkpt lat="43.44045" lon="6.63231">
        <ele>91</ele>
        <time>2025-11-12T15:39:26.000Z</time>
      </trkpt>
      <trkpt lat="43.44037" lon="6.6324">
        <ele>91</ele>
        <time>2025-11-12T15:39:35.000Z</time>
      </trkpt>
      <trkpt lat="43.44029" lon="6.63249">
        <ele>90</ele>
        <time>2025-11-12T15:39:44.000Z</time>
      </trkpt>
      <trkpt lat="43.44021" lon="6.63259">
        <ele>90</ele>
        <time>2025-11-12T15:39:53.000Z</time>
      </trkpt>
      <trkpt lat="43.44014" lon="6.63271">
        <ele>89</ele>
        <time>2025-11-12T15:40:02.000Z</time>
      </trkpt>
      <trkpt lat="43.44009" lon="6.63285">
        <ele>89</ele>
        <time>2025-11-12T15:40:11.000Z</time>
      </trkpt>
      <trkpt lat="43.44006" lon="6.633">
        <ele>89</ele>
        <time>2025-11-12T15:40:20.000Z</time>
      </trkpt>
      <trkpt lat="43.44004" lon="6.63314">
        <ele>89</ele>
        <time>2025-11-12T15:40:29.000Z</time>
      </trkpt>
      <trkpt lat="43.44001" lon="6.63327">
        <ele>90</ele>
        <time>2025-11-12T15:40:38.000Z</time>
      </trkpt>
      <trkpt lat="43.44001" lon="6.6334">
        <ele>90</ele>
        <time>2025-11-12T15:40:47.000Z</time>
      </trkpt>
      <trkpt lat="43.43999" lon="6.63354">
        <ele>90</ele>
        <time>2025-11-12T15:40:56.000Z</time>
      </trkpt>
      <trkpt lat="43.43998" lon="6.63367">
        <ele>89</ele>
        <time>2025-11-12T15:41:05.000Z</time>
      </trkpt>
      <trkpt lat="43.43998" lon="6.63379">
        <ele>92</ele>
        <time>2025-11-12T15:41:26.000Z</time>
      </trkpt>
    </trkseg>
  </trk>
</gpx>